Benbecula, United Kingdom
Current Conditions -  °F | °C
As of 8:50 AM on Monday 22 Dec 2014 (Local Time) from EGPL Reporting Station
Rain Showers Rain Showers  
Wind Chill: 35°   Ceiling: Unl
Heat Index: 45°   Visibility: 6mi
Dew Point: 39°   Wind: 28mph
Humidity: 81%   Direction: 270°W
Pressure: 29.5"   Gusts: NA
Location:  57.4°N, 7.2°W
Report Text: EGPL 220850Z 27024KT 9999 VCSH FEW018 SCT028 07/04 Q0999
Loading
Personal Weather Stations






























Interactive Weather Map New forecast layout! Learn more

10-Day Weather Forecast

Advertisements
Track Severe Weather on mobile